Time;durP1;ratioP1;P1;durP2;ratioP2;P2;SDS_P1;SDS_P2;PMS_P1;PMS_P2;Temp;Humidity;BMP_temperature;BMP_pressure;BME280_temperature;BME280_humidity;BME280_pressure;Samples;Min_cycle;Max_cycle;Signal;HPM_P1;HPM_P2
2023/11/25 00:00:10;;;;;;;1.20;1.00;;;;;;;;;;4950062;28;20313;-87
2023/11/25 00:02:38;;;;;;;3.77;1.47;;;;;;;;;;4934106;28;20237;-87
2023/11/25 00:05:14;;;;;;;6.03;1.37;;;;;;;;;;4955909;28;20314;-87
2023/11/25 00:07:40;;;;;;;8.47;1.87;;;;;;;;;;4932558;28;20738;-86
2023/11/25 00:10:13;;;;;;;4.37;1.60;;;;;;;;;;4951268;28;20230;-87
2023/11/25 00:12:43;;;;;;;2.63;1.23;;;;;;;;;;4953538;28;20714;-88
2023/11/25 00:15:15;;;;;;;3.63;1.17;;;;;;;;;;4917726;28;20227;-87
2023/11/25 00:17:43;;;;;;;4.90;1.20;;;;;;;;;;4959822;28;20230;-87
2023/11/25 00:23:18;;;;;;;4.40;1.30;;;;;;;;;;4950303;28;20242;-87
2023/11/25 00:25:59;;;;;;;;;;;;;;;;;;;;;
2023/11/25 00:28:31;;;;;;;3.77;1.40;;;;;;;;;;4949010;28;20238;-88
2023/11/25 00:31:10;;;;;;;4.20;1.20;;;;;;;;;;4957381;28;20226;-87
2023/11/25 00:33:36;;;;;;;4.43;1.30;;;;;;;;;;4936844;28;20240;-88
2023/11/25 00:36:14;;;;;;;5.30;1.50;;;;;;;;;;4938470;28;20218;-88
2023/11/25 00:38:43;;;;;;;8.97;1.40;;;;;;;;;;4938296;28;20366;-86
2023/11/25 00:41:18;;;;;;;4.13;1.20;;;;;;;;;;4955987;28;20297;-89
2023/11/25 00:43:44;;;;;;;2.30;1.10;;;;;;;;;;4934375;28;20242;-87
2023/11/25 00:46:12;;;;;;;7.10;1.60;;;;;;;;;;4928529;28;20256;-88
2023/11/25 00:48:52;;;;;;;4.30;1.23;;;;;;;;;;4944961;28;20215;-89
2023/11/25 00:51:18;;;;;;;4.63;1.63;;;;;;;;;;4952285;28;20237;-88
2023/11/25 00:53:53;;;;;;;4.53;1.10;;;;;;;;;;4949895;28;20257;-86
2023/11/25 00:56:21;;;;;;;5.23;1.53;;;;;;;;;;4953012;28;20231;-88
2023/11/25 00:58:53;;;;;;;2.77;1.30;;;;;;;;;;4924054;29;20226;-88
2023/11/25 01:01:20;;;;;;;5.77;1.23;;;;;;;;;;4939907;28;20325;-87
2023/11/25 01:03:46;;;;;;;5.03;1.30;;;;;;;;;;4944304;28;20233;-87
2023/11/25 01:06:12;;;;;;;2.50;1.10;;;;;;;;;;4942757;28;20766;-87
2023/11/25 01:08:37;;;;;;;5.40;1.53;;;;;;;;;;4953021;28;20253;-89
2023/11/25 01:11:15;;;;;;;8.10;1.40;;;;;;;;;;4964723;28;20233;-91
2023/11/25 01:13:44;;;;;;;4.57;1.33;;;;;;;;;;4978341;28;20218;-91
2023/11/25 01:16:33;;;;;;;5.80;1.30;;;;;;;;;;4937827;28;20274;-89
2023/11/25 01:19:05;;;;;;;2.70;1.20;;;;;;;;;;4962088;28;20244;-91
2023/11/25 01:21:32;;;;;;;5.63;1.30;;;;;;;;;;4970855;28;20241;-91
2023/11/25 01:24:01;;;;;;;6.30;1.50;;;;;;;;;;4944473;28;20226;-91
2023/11/25 01:26:27;;;;;;;4.83;1.40;;;;;;;;;;4952849;28;20226;-90
2023/11/25 01:29:02;;;;;;;2.30;1.30;;;;;;;;;;4938910;28;20211;-91
2023/11/25 01:31:28;;;;;;;5.10;1.60;;;;;;;;;;4956863;28;20405;-91
2023/11/25 01:33:59;;;;;;;3.77;1.17;;;;;;;;;;4933971;28;20280;-87
2023/11/25 01:36:38;;;;;;;6.17;1.30;;;;;;;;;;4931244;28;20218;-88
2023/11/25 01:39:18;;;;;;;7.63;1.47;;;;;;;;;;4936896;28;20222;-89
2023/11/25 01:42:12;;;;;;;4.87;1.10;;;;;;;;;;4921989;28;20714;-87
2023/11/25 01:44:38;;;;;;;7.83;1.67;;;;;;;;;;4935553;28;20253;-88
2023/11/25 01:47:07;;;;;;;5.13;1.10;;;;;;;;;;4933987;28;20226;-89
2023/11/25 01:49:33;;;;;;;7.00;1.57;;;;;;;;;;4931792;29;20247;-87
2023/11/25 01:51:58;;;;;;;9.50;1.80;;;;;;;;;;4935969;28;20241;-89
2023/11/25 01:54:25;;;;;;;5.13;1.40;;;;;;;;;;4926722;28;20225;-88
2023/11/25 01:56:53;;;;;;;5.00;1.13;;;;;;;;;;4949929;28;20249;-87
2023/11/25 01:59:27;;;;;;;3.60;1.40;;;;;;;;;;4924042;28;20217;-87
2023/11/25 02:01:53;;;;;;;4.73;1.40;;;;;;;;;;4920382;28;20230;-88
2023/11/25 02:04:24;;;;;;;4.00;1.20;;;;;;;;;;4955483;28;20603;-88
2023/11/25 02:06:50;;;;;;;4.60;1.50;;;;;;;;;;4938573;29;20237;-88
2023/11/25 02:09:17;;;;;;;4.43;1.27;;;;;;;;;;4935790;28;20218;-87
2023/11/25 02:12:07;;;;;;;3.00;1.03;;;;;;;;;;4928906;28;20269;-88
2023/11/25 02:14:40;;;;;;;6.70;1.37;;;;;;;;;;4951621;28;20297;-86
2023/11/25 02:17:10;;;;;;;3.53;1.37;;;;;;;;;;4931661;28;20230;-88
2023/11/25 02:19:45;;;;;;;5.27;1.50;;;;;;;;;;4934776;28;20234;-87
2023/11/25 02:22:37;;;;;;;5.27;1.57;;;;;;;;;;4899716;28;20276;-88
2023/11/25 02:25:08;;;;;;;4.00;1.40;;;;;;;;;;4923946;28;20237;-87
2023/11/25 02:27:47;;;;;;;3.90;1.40;;;;;;;;;;4938678;29;20294;-87
2023/11/25 02:30:19;;;;;;;4.97;1.47;;;;;;;;;;4935675;28;20233;-88
2023/11/25 02:32:49;;;;;;;3.23;1.40;;;;;;;;;;4939557;28;20233;-88
2023/11/25 02:35:21;;;;;;;4.77;1.30;;;;;;;;;;4931855;28;20589;-87
2023/11/25 02:37:59;;;;;;;3.20;0.93;;;;;;;;;;4930225;29;20334;-86
2023/11/25 02:40:29;;;;;;;2.93;1.17;;;;;;;;;;4935119;28;20248;-87
2023/11/25 02:43:04;;;;;;;4.07;1.43;;;;;;;;;;4935746;28;20214;-91
2023/11/25 02:45:33;;;;;;;2.90;1.37;;;;;;;;;;4977654;28;20251;-86
2023/11/25 02:48:04;;;;;;;4.53;1.50;;;;;;;;;;4929188;28;20245;-86
2023/11/25 02:50:35;;;;;;;5.27;1.10;;;;;;;;;;4921881;28;20751;-86
2023/11/25 02:53:07;;;;;;;5.80;1.43;;;;;;;;;;4956525;28;20241;-87
2023/11/25 02:56:12;;;;;;;3.87;1.30;;;;;;;;;;4952255;28;20249;-86
2023/11/25 02:58:48;;;;;;;3.63;1.40;;;;;;;;;;4924805;28;20226;-86
2023/11/25 03:01:49;;;;;;;;;;;;;;;;;;;;;
2023/11/25 03:04:31;;;;;;;3.63;1.30;;;;;;;;;;4940394;28;20229;-88
2023/11/25 03:07:04;;;;;;;2.77;1.30;;;;;;;;;;4922581;28;20726;-86
2023/11/25 03:09:30;;;;;;;11.60;1.70;;;;;;;;;;4921311;28;20688;-88
2023/11/25 03:12:02;;;;;;;3.37;1.07;;;;;;;;;;4930678;28;20705;-87
2023/11/25 03:14:31;;;;;;;4.23;1.80;;;;;;;;;;4955185;28;20254;-86
2023/11/25 03:17:05;;;;;;;2.97;1.23;;;;;;;;;;4913406;28;20226;-87
2023/11/25 03:19:57;;;;;;;5.83;1.57;;;;;;;;;;4924055;28;20229;-87
2023/11/25 03:22:26;;;;;;;3.20;1.30;;;;;;;;;;4930654;28;20242;-87
2023/11/25 03:24:52;;;;;;;5.43;1.30;;;;;;;;;;4935588;28;20268;-86
2023/11/25 03:27:17;;;;;;;7.30;1.07;;;;;;;;;;4939444;28;20222;-87
2023/11/25 03:29:52;;;;;;;2.93;1.20;;;;;;;;;;4940925;28;20235;-88
2023/11/25 03:32:19;;;;;;;4.20;1.30;;;;;;;;;;4933530;28;20683;-87
2023/11/25 03:34:54;;;;;;;5.30;2.10;;;;;;;;;;4959083;28;20300;-87
2023/11/25 03:37:56;;;;;;;5.23;2.70;;;;;;;;;;4952950;28;20281;-86
2023/11/25 03:40:22;;;;;;;6.60;3.10;;;;;;;;;;4943733;28;20256;-87
2023/11/25 03:42:56;;;;;;;10.97;3.07;;;;;;;;;;4948132;28;20841;-87
2023/11/25 03:45:21;;;;;;;4.63;1.90;;;;;;;;;;4930019;28;20254;-86
2023/11/25 03:47:52;;;;;;;3.93;1.60;;;;;;;;;;4928216;29;20233;-86
2023/11/25 03:50:29;;;;;;;3.13;1.37;;;;;;;;;;4924969;28;20273;-86
2023/11/25 03:52:54;;;;;;;4.87;1.60;;;;;;;;;;4932263;28;20757;-83
2023/11/25 03:55:20;;;;;;;9.03;1.70;;;;;;;;;;4938475;28;20223;-85
2023/11/25 03:57:49;;;;;;;4.17;1.50;;;;;;;;;;4940260;28;20371;-86
2023/11/25 04:04:04;;;;;;;4.73;1.33;;;;;;;;;;4968102;28;20265;-86
2023/11/25 04:06:32;;;;;;;3.60;1.27;;;;;;;;;;4934535;28;20259;-86
2023/11/25 04:08:58;;;;;;;6.73;1.77;;;;;;;;;;4940102;29;20701;-86
2023/11/25 04:11:24;;;;;;;8.50;1.90;;;;;;;;;;4940159;28;20225;-86
2023/11/25 04:13:50;;;;;;;6.90;1.77;;;;;;;;;;4937465;28;20229;-85
2023/11/25 04:16:22;;;;;;;5.97;1.77;;;;;;;;;;4931968;28;20233;-86
2023/11/25 04:18:48;;;;;;;6.40;2.03;;;;;;;;;;4944630;28;20692;-86
2023/11/25 04:21:13;;;;;;;5.63;1.53;;;;;;;;;;4925758;28;20249;-87
2023/11/25 04:23:39;;;;;;;5.23;1.87;;;;;;;;;;4935325;29;20281;-86
2023/11/25 04:26:05;;;;;;;4.57;1.63;;;;;;;;;;4954172;28;20231;-84
2023/11/25 04:28:34;;;;;;;7.13;1.83;;;;;;;;;;4941059;28;20221;-87
2023/11/25 04:30:59;;;;;;;3.87;1.50;;;;;;;;;;4922207;28;20226;-86
2023/11/25 04:33:29;;;;;;;6.80;1.80;;;;;;;;;;4947899;28;20219;-85
2023/11/25 04:35:54;;;;;;;4.50;1.40;;;;;;;;;;4948945;28;20213;-84
2023/11/25 04:38:20;;;;;;;5.63;1.60;;;;;;;;;;4949436;28;20248;-86
2023/11/25 04:40:48;;;;;;;7.57;1.67;;;;;;;;;;4943478;28;20230;-85
2023/11/25 04:43:19;;;;;;;8.17;1.70;;;;;;;;;;4920927;28;20657;-86
2023/11/25 04:45:44;;;;;;;5.53;1.70;;;;;;;;;;4944297;28;20222;-86
2023/11/25 04:48:10;;;;;;;5.23;2.20;;;;;;;;;;4926476;28;20263;-86
2023/11/25 04:50:36;;;;;;;5.10;2.17;;;;;;;;;;4946767;28;20234;-86
2023/11/25 04:53:31;;;;;;;10.43;2.30;;;;;;;;;;4926290;29;20255;-86
2023/11/25 04:55:57;;;;;;;4.53;1.53;;;;;;;;;;4947609;28;20289;-81
2023/11/25 04:58:22;;;;;;;7.77;1.97;;;;;;;;;;4956367;28;20237;-82
2023/11/25 05:00:48;;;;;;;3.90;1.50;;;;;;;;;;4969490;28;20305;-82
2023/11/25 05:03:14;;;;;;;6.60;1.77;;;;;;;;;;4959796;28;20206;-82
2023/11/25 05:05:40;;;;;;;12.33;2.10;;;;;;;;;;4954033;28;20229;-80
2023/11/25 05:08:08;;;;;;;5.77;1.90;;;;;;;;;;4945139;28;20631;-79
2023/11/25 05:10:36;;;;;;;6.17;2.40;;;;;;;;;;4966450;28;20242;-82
2023/11/25 05:13:04;;;;;;;8.03;3.60;;;;;;;;;;4968083;28;20234;-81
2023/11/25 05:15:30;;;;;;;7.17;3.80;;;;;;;;;;4953858;28;20595;-82
2023/11/25 05:17:55;;;;;;;5.83;3.30;;;;;;;;;;4936292;28;20241;-81
2023/11/25 05:20:21;;;;;;;5.20;2.20;;;;;;;;;;4965036;28;20234;-82
2023/11/25 05:22:47;;;;;;;8.67;2.33;;;;;;;;;;4955769;28;20206;-82
2023/11/25 05:25:18;;;;;;;5.33;2.00;;;;;;;;;;4955829;28;20272;-81
2023/11/25 05:27:43;;;;;;;4.90;1.83;;;;;;;;;;4944049;28;20633;-83
2023/11/25 05:30:12;;;;;;;5.63;1.90;;;;;;;;;;4933968;28;20222;-82
2023/11/25 05:32:42;;;;;;;6.40;1.80;;;;;;;;;;4934696;28;20246;-82
2023/11/25 05:35:08;;;;;;;4.27;1.57;;;;;;;;;;4959980;28;20226;-83
2023/11/25 05:37:35;;;;;;;6.67;1.77;;;;;;;;;;4950594;28;20221;-81
2023/11/25 05:40:08;;;;;;;7.13;2.27;;;;;;;;;;4931053;28;20232;-81
2023/11/25 05:42:38;;;;;;;7.27;2.10;;;;;;;;;;4955712;28;20229;-82
2023/11/25 05:45:08;;;;;;;9.33;2.30;;;;;;;;;;4963554;28;20233;-82
2023/11/25 05:47:34;;;;;;;5.47;1.70;;;;;;;;;;4947753;28;20282;-81
2023/11/25 05:49:59;;;;;;;6.00;1.90;;;;;;;;;;4933685;28;20222;-83
2023/11/25 05:52:26;;;;;;;8.57;2.07;;;;;;;;;;4931241;28;20313;-82
2023/11/25 05:54:51;;;;;;;7.00;2.13;;;;;;;;;;4936660;28;20317;-83
2023/11/25 05:57:20;;;;;;;4.90;1.80;;;;;;;;;;4962018;28;20230;-81
2023/11/25 05:59:46;;;;;;;3.83;1.70;;;;;;;;;;4938106;28;20227;-84
2023/11/25 06:02:11;;;;;;;5.43;1.67;;;;;;;;;;4952862;28;20714;-84
2023/11/25 06:04:37;;;;;;;10.03;2.07;;;;;;;;;;4964905;28;20232;-82
2023/11/25 06:07:02;;;;;;;7.23;1.70;;;;;;;;;;4949741;28;20260;-81
2023/11/25 06:09:31;;;;;;;7.87;2.10;;;;;;;;;;4965607;28;20265;-81
2023/11/25 06:11:57;;;;;;;6.70;1.70;;;;;;;;;;4967990;28;20222;-82
2023/11/25 06:14:24;;;;;;;3.87;1.80;;;;;;;;;;4950217;28;20661;-83
2023/11/25 06:16:52;;;;;;;3.43;1.50;;;;;;;;;;4931979;28;20286;-83
2023/11/25 06:19:18;;;;;;;3.10;1.60;;;;;;;;;;4950327;28;20234;-83
2023/11/25 06:21:45;;;;;;;6.27;1.90;;;;;;;;;;4932254;28;20234;-83
2023/11/25 06:24:13;;;;;;;3.33;1.17;;;;;;;;;;4956502;28;20583;-81
2023/11/25 06:26:38;;;;;;;5.73;1.67;;;;;;;;;;4947891;28;20238;-84
2023/11/25 06:29:08;;;;;;;5.00;1.60;;;;;;;;;;4949258;28;20253;-82
2023/11/25 06:31:35;;;;;;;6.07;1.70;;;;;;;;;;4947763;28;20225;-82
2023/11/25 06:34:01;;;;;;;5.93;2.00;;;;;;;;;;4946424;28;20229;-83
2023/11/25 06:36:30;;;;;;;4.80;2.03;;;;;;;;;;4950320;28;20223;-82
2023/11/25 06:38:58;;;;;;;5.80;1.90;;;;;;;;;;4934028;28;20230;-84
2023/11/25 06:41:27;;;;;;;6.90;2.10;;;;;;;;;;4952631;28;20257;-81
2023/11/25 06:43:52;;;;;;;5.43;2.10;;;;;;;;;;4938584;28;20714;-80
2023/11/25 06:46:18;;;;;;;5.87;2.10;;;;;;;;;;4950534;28;20226;-82
2023/11/25 06:48:47;;;;;;;3.13;1.43;;;;;;;;;;4959089;28;20223;-81
2023/11/25 06:51:15;;;;;;;6.53;1.87;;;;;;;;;;4932378;28;20724;-81
2023/11/25 06:53:41;;;;;;;4.33;1.60;;;;;;;;;;4957476;28;20223;-80
2023/11/25 06:56:10;;;;;;;6.37;1.67;;;;;;;;;;4971044;28;20230;-82
2023/11/25 06:58:39;;;;;;;4.43;1.63;;;;;;;;;;4936356;28;20237;-82
2023/11/25 07:01:05;;;;;;;5.30;1.60;;;;;;;;;;4933238;28;20595;-81
2023/11/25 07:03:33;;;;;;;7.97;2.33;;;;;;;;;;4950530;28;20249;-80
2023/11/25 07:06:01;;;;;;;4.83;1.30;;;;;;;;;;4950101;28;20217;-81
2023/11/25 07:08:26;;;;;;;5.07;2.20;;;;;;;;;;4953074;28;20742;-81
2023/11/25 07:10:58;;;;;;;5.93;2.33;;;;;;;;;;4959146;28;20672;-81
2023/11/25 07:13:27;;;;;;;2.63;1.80;;;;;;;;;;4974716;28;20791;-82
2023/11/25 07:15:52;;;;;;;6.40;2.30;;;;;;;;;;4942237;28;20218;-81
2023/11/25 07:18:18;;;;;;;4.33;2.10;;;;;;;;;;4936251;28;20700;-82
2023/11/25 07:20:48;;;;;;;8.50;3.03;;;;;;;;;;4942353;28;20273;-84
2023/11/25 07:23:14;;;;;;;9.23;2.70;;;;;;;;;;4944390;28;20219;-83
2023/11/25 07:25:41;;;;;;;4.87;3.10;;;;;;;;;;4952442;28;20650;-82
2023/11/25 07:28:15;;;;;;;2.83;1.40;;;;;;;;;;4948523;28;20265;-82
2023/11/25 07:30:44;;;;;;;3.17;1.63;;;;;;;;;;4979172;28;20218;-81
2023/11/25 07:33:10;;;;;;;2.07;1.30;;;;;;;;;;4958036;28;20222;-80
2023/11/25 07:35:39;;;;;;;3.43;1.60;;;;;;;;;;4952015;28;20310;-80
2023/11/25 07:38:05;;;;;;;2.37;1.57;;;;;;;;;;4955131;28;20257;-81
2023/11/25 07:40:30;;;;;;;4.03;2.50;;;;;;;;;;4972455;28;20233;-81
2023/11/25 07:42:56;;;;;;;4.47;2.73;;;;;;;;;;4960429;28;20218;-81
2023/11/25 07:45:25;;;;;;;4.30;2.37;;;;;;;;;;4951702;28;20229;-81
2023/11/25 07:47:53;;;;;;;7.40;4.10;;;;;;;;;;4959592;28;20366;-81
2023/11/25 07:50:19;;;;;;;2.60;2.10;;;;;;;;;;4979855;28;20217;-80
2023/11/25 07:52:45;;;;;;;6.97;4.20;;;;;;;;;;4950850;28;20210;-80
2023/11/25 07:55:11;;;;;;;8.03;5.67;;;;;;;;;;4965262;28;20619;-79
2023/11/25 07:57:39;;;;;;;13.50;10.93;;;;;;;;;;4953112;28;20238;-80
2023/11/25 08:00:06;;;;;;;6.73;5.37;;;;;;;;;;4941883;28;20230;-82
2023/11/25 08:02:38;;;;;;;17.07;12.47;;;;;;;;;;4952424;28;20234;-81
2023/11/25 08:05:03;;;;;;;8.27;5.57;;;;;;;;;;4952126;28;20250;-80
2023/11/25 08:07:29;;;;;;;14.33;10.73;;;;;;;;;;4968234;28;20241;-80
2023/11/25 08:09:54;;;;;;;15.73;8.83;;;;;;;;;;4973695;28;20590;-80
2023/11/25 08:12:20;;;;;;;10.53;6.70;;;;;;;;;;4950880;28;20227;-82
2023/11/25 08:14:47;;;;;;;4.77;3.50;;;;;;;;;;4960988;28;20226;-79
2023/11/25 08:17:12;;;;;;;12.60;6.53;;;;;;;;;;4939143;28;20222;-81
2023/11/25 08:19:40;;;;;;;15.67;10.97;;;;;;;;;;4950358;28;20246;-78
2023/11/25 08:22:05;;;;;;;7.63;5.17;;;;;;;;;;4939127;28;20242;-79
2023/11/25 08:24:33;;;;;;;6.67;4.20;;;;;;;;;;4948374;28;20266;-81
2023/11/25 08:26:59;;;;;;;9.43;5.63;;;;;;;;;;4958170;28;20222;-77
2023/11/25 08:29:24;;;;;;;7.97;5.93;;;;;;;;;;4963229;28;20223;-80
2023/11/25 08:31:50;;;;;;;5.97;4.67;;;;;;;;;;4966921;28;20211;-79
2023/11/25 08:34:16;;;;;;;3.67;3.30;;;;;;;;;;4957666;28;20534;-80
2023/11/25 08:36:52;;;;;;;4.50;3.70;;;;;;;;;;4965117;28;20214;-80
2023/11/25 08:39:21;;;;;;;4.67;3.33;;;;;;;;;;4966579;28;20218;-80
2023/11/25 08:41:47;;;;;;;5.23;2.73;;;;;;;;;;4940949;28;20211;-81
2023/11/25 08:44:15;;;;;;;3.63;3.27;;;;;;;;;;4953046;28;20476;-80
2023/11/25 08:46:42;;;;;;;2.90;2.60;;;;;;;;;;4954640;28;20230;-80
2023/11/25 08:49:10;;;;;;;3.87;2.40;;;;;;;;;;4970395;28;20297;-81
2023/11/25 08:51:36;;;;;;;5.33;2.60;;;;;;;;;;4953106;28;20240;-80
2023/11/25 08:54:02;;;;;;;4.50;2.83;;;;;;;;;;4938884;28;20668;-82
2023/11/25 08:56:31;;;;;;;7.37;3.20;;;;;;;;;;4955132;28;20289;-81
2023/11/25 08:59:00;;;;;;;6.37;2.17;;;;;;;;;;4932614;28;20771;-81
2023/11/25 09:01:31;;;;;;;5.07;2.23;;;;;;;;;;4948048;28;20210;-82
2023/11/25 09:03:57;;;;;;;5.70;2.20;;;;;;;;;;4950686;28;20641;-81
2023/11/25 09:06:30;;;;;;;4.53;2.07;;;;;;;;;;4944560;28;20257;-82
2023/11/25 09:09:01;;;;;;;6.03;2.30;;;;;;;;;;4947234;28;20222;-81
2023/11/25 09:11:29;;;;;;;6.13;2.40;;;;;;;;;;4949942;28;20230;-78
2023/11/25 09:13:57;;;;;;;5.80;2.07;;;;;;;;;;4970077;28;20652;-81
2023/11/25 09:16:24;;;;;;;3.40;2.30;;;;;;;;;;4954570;28;25303;-80
2023/11/25 09:18:50;;;;;;;4.07;2.03;;;;;;;;;;4946940;28;20235;-81
2023/11/25 09:21:17;;;;;;;4.07;2.20;;;;;;;;;;4949843;28;20222;-80
2023/11/25 09:23:43;;;;;;;4.13;2.07;;;;;;;;;;4967189;28;20308;-78
2023/11/25 09:26:08;;;;;;;5.10;1.93;;;;;;;;;;4975437;28;20214;-78
2023/11/25 09:28:38;;;;;;;5.20;1.97;;;;;;;;;;4970222;28;20283;-79
2023/11/25 09:31:03;;;;;;;4.70;2.03;;;;;;;;;;4949796;28;20215;-82
2023/11/25 09:33:29;;;;;;;3.87;2.00;;;;;;;;;;4983853;28;20245;-79
2023/11/25 09:35:57;;;;;;;3.03;1.97;;;;;;;;;;4952751;28;20205;-80
2023/11/25 09:38:23;;;;;;;3.50;1.80;;;;;;;;;;4950886;28;20242;-78
2023/11/25 09:40:48;;;;;;;2.43;1.70;;;;;;;;;;4970903;28;20225;-81
2023/11/25 09:43:15;;;;;;;5.53;2.00;;;;;;;;;;4974442;28;20227;-81
2023/11/25 09:45:41;;;;;;;3.67;1.73;;;;;;;;;;4960552;28;20765;-80
2023/11/25 09:48:09;;;;;;;4.27;2.50;;;;;;;;;;4969613;28;20218;-83
2023/11/25 09:50:35;;;;;;;4.07;2.07;;;;;;;;;;4953416;28;20248;-83
2023/11/25 09:53:22;;;;;;;2.83;1.53;;;;;;;;;;4947370;28;20237;-82
2023/11/25 09:55:58;;;;;;;2.83;1.67;;;;;;;;;;4942872;28;20209;-82
2023/11/25 09:58:27;;;;;;;5.07;1.60;;;;;;;;;;4967332;28;20771;-82
2023/11/25 10:01:00;;;;;;;2.83;1.90;;;;;;;;;;4965957;28;20222;-83
2023/11/25 10:03:31;;;;;;;5.37;2.40;;;;;;;;;;4952545;28;20284;-83
2023/11/25 10:05:57;;;;;;;4.20;1.53;;;;;;;;;;4942623;28;20230;-82
2023/11/25 10:08:23;;;;;;;2.57;1.33;;;;;;;;;;4951434;28;20338;-83
2023/11/25 10:11:00;;;;;;;5.63;1.47;;;;;;;;;;4952474;28;20214;-82
2023/11/25 10:13:39;;;;;;;3.03;1.80;;;;;;;;;;4940332;28;20244;-83
2023/11/25 10:16:05;;;;;;;2.87;1.60;;;;;;;;;;4937572;28;20223;-81
2023/11/25 10:18:36;;;;;;;4.17;2.30;;;;;;;;;;4956268;28;20338;-81
2023/11/25 10:21:07;;;;;;;3.07;1.50;;;;;;;;;;4949662;28;20270;-82
2023/11/25 10:23:34;;;;;;;3.00;1.60;;;;;;;;;;4956346;28;20250;-79
2023/11/25 10:26:06;;;;;;;3.37;1.60;;;;;;;;;;4936645;28;20222;-83
2023/11/25 10:28:36;;;;;;;4.40;1.60;;;;;;;;;;4934524;28;20258;-82
2023/11/25 10:31:08;;;;;;;5.30;1.77;;;;;;;;;;4956292;28;20226;-84
2023/11/25 10:33:40;;;;;;;2.50;1.70;;;;;;;;;;4957177;28;20230;-82
2023/11/25 10:36:05;;;;;;;3.13;1.53;;;;;;;;;;4942535;28;20218;-79
2023/11/25 10:38:31;;;;;;;2.87;1.40;;;;;;;;;;4952884;28;20229;-81
2023/11/25 10:40:58;;;;;;;4.27;1.70;;;;;;;;;;4943564;28;20218;-80
2023/11/25 10:43:32;;;;;;;5.63;1.77;;;;;;;;;;4959539;28;20225;-80
2023/11/25 10:46:07;;;;;;;2.80;1.83;;;;;;;;;;4955458;28;20949;-80
2023/11/25 10:48:36;;;;;;;8.30;2.17;;;;;;;;;;4947763;28;20218;-82
2023/11/25 10:51:04;;;;;;;4.40;2.00;;;;;;;;;;4952515;28;20211;-80
2023/11/25 10:53:30;;;;;;;5.60;1.97;;;;;;;;;;4940761;28;20242;-84
2023/11/25 10:55:58;;;;;;;3.73;1.73;;;;;;;;;;4939630;28;20218;-82
2023/11/25 10:58:26;;;;;;;4.10;2.07;;;;;;;;;;4954546;28;20231;-81
2023/11/25 11:00:52;;;;;;;4.17;1.60;;;;;;;;;;4940719;28;20226;-81
2023/11/25 11:03:17;;;;;;;5.03;1.70;;;;;;;;;;4953146;28;20218;-82
2023/11/25 11:05:52;;;;;;;6.60;2.10;;;;;;;;;;4967346;28;20228;-80
2023/11/25 11:08:22;;;;;;;7.13;1.87;;;;;;;;;;4969726;28;20213;-82
2023/11/25 11:10:56;;;;;;;2.97;1.70;;;;;;;;;;4978734;28;20214;-82
2023/11/25 11:13:29;;;;;;;4.13;1.83;;;;;;;;;;4967892;28;20231;-80
2023/11/25 11:16:00;;;;;;;5.77;1.50;;;;;;;;;;4959946;28;20225;-82
2023/11/25 11:18:35;;;;;;;6.57;2.37;;;;;;;;;;4954912;28;20230;-83
2023/11/25 11:21:07;;;;;;;7.27;2.30;;;;;;;;;;4953048;28;20234;-81
2023/11/25 11:23:37;;;;;;;8.00;2.70;;;;;;;;;;4936347;28;20281;-82
2023/11/25 11:26:17;;;;;;;6.50;1.93;;;;;;;;;;4940811;28;20246;-82
2023/11/25 11:28:43;;;;;;;5.20;1.90;;;;;;;;;;4975940;28;20221;-82
2023/11/25 11:31:21;;;;;;;7.53;1.90;;;;;;;;;;4970616;28;20211;-80
2023/11/25 11:33:46;;;;;;;5.47;1.77;;;;;;;;;;4966521;28;20599;-82
2023/11/25 11:36:41;;;;;;;5.57;1.90;;;;;;;;;;4957781;28;20226;-81
2023/11/25 11:39:11;;;;;;;3.73;1.73;;;;;;;;;;4941560;28;20289;-81
2023/11/25 11:41:39;;;;;;;9.57;2.27;;;;;;;;;;4975024;28;20237;-81
2023/11/25 11:44:10;;;;;;;19.53;9.17;;;;;;;;;;4939127;28;20596;-83
2023/11/25 11:46:38;;;;;;;28.60;18.37;;;;;;;;;;4957146;28;20669;-83
2023/11/25 11:49:13;;;;;;;20.77;13.13;;;;;;;;;;4964057;28;20665;-81
2023/11/25 11:52:02;;;;;;;12.20;6.23;;;;;;;;;;4946125;28;20318;-84
2023/11/25 11:54:28;;;;;;;6.43;3.40;;;;;;;;;;4945469;28;20235;-82
2023/11/25 11:57:04;;;;;;;7.60;3.37;;;;;;;;;;4958058;28;20293;-83
2023/11/25 12:00:00;;;;;;;6.10;3.07;;;;;;;;;;4964610;28;20221;-81
2023/11/25 12:02:32;;;;;;;3.93;2.07;;;;;;;;;;4964336;28;20234;-82
2023/11/25 12:05:00;;;;;;;4.90;2.20;;;;;;;;;;4963700;28;20226;-81
2023/11/25 12:07:29;;;;;;;8.73;2.10;;;;;;;;;;4939669;28;20822;-82
2023/11/25 12:09:57;;;;;;;5.57;1.90;;;;;;;;;;4971565;28;20222;-82
2023/11/25 12:12:23;;;;;;;2.97;1.80;;;;;;;;;;4944588;28;21218;-80
2023/11/25 12:14:49;;;;;;;2.93;1.97;;;;;;;;;;4964125;28;20222;-83
2023/11/25 12:17:17;;;;;;;5.33;1.67;;;;;;;;;;4958869;28;20266;-82
2023/11/25 12:19:43;;;;;;;3.90;1.97;;;;;;;;;;4955825;28;20254;-82
2023/11/25 12:22:11;;;;;;;4.93;1.90;;;;;;;;;;4935896;28;20310;-82
2023/11/25 12:24:44;;;;;;;4.20;1.90;;;;;;;;;;4954650;28;20234;-83
2023/11/25 12:27:11;;;;;;;7.03;2.00;;;;;;;;;;4954516;28;20242;-83
2023/11/25 12:29:39;;;;;;;3.63;1.60;;;;;;;;;;4968482;28;20225;-83
2023/11/25 12:32:05;;;;;;;3.67;1.93;;;;;;;;;;4953048;28;20234;-80
2023/11/25 12:34:30;;;;;;;6.73;1.93;;;;;;;;;;4936787;28;20226;-80
2023/11/25 12:36:59;;;;;;;3.13;1.77;;;;;;;;;;4956590;28;20202;-82
2023/11/25 12:39:25;;;;;;;3.97;1.80;;;;;;;;;;4942776;28;20226;-81
2023/11/25 12:41:51;;;;;;;4.13;1.87;;;;;;;;;;4951392;28;20659;-81
2023/11/25 12:44:16;;;;;;;7.40;2.00;;;;;;;;;;4950680;28;20222;-85
2023/11/25 12:46:43;;;;;;;3.77;2.20;;;;;;;;;;4922452;28;20313;-81
2023/11/25 12:49:18;;;;;;;5.07;1.63;;;;;;;;;;4957236;28;20278;-79
2023/11/25 12:51:44;;;;;;;7.70;2.03;;;;;;;;;;4954117;28;20237;-83
2023/11/25 12:54:15;;;;;;;4.37;2.07;;;;;;;;;;4948633;28;20697;-80
2023/11/25 12:56:45;;;;;;;3.50;1.73;;;;;;;;;;4936036;28;20496;-80
2023/11/25 12:59:12;;;;;;;4.83;1.80;;;;;;;;;;4935734;28;20249;-81
2023/11/25 13:01:40;;;;;;;5.30;3.10;;;;;;;;;;4961918;28;20231;-78
2023/11/25 13:04:09;;;;;;;3.57;1.40;;;;;;;;;;4981779;28;20816;-82
2023/11/25 13:06:47;;;;;;;6.73;1.73;;;;;;;;;;4951370;28;20253;-79
2023/11/25 13:09:27;;;;;;;2.63;1.60;;;;;;;;;;4983335;28;20214;-81
2023/11/25 13:11:54;;;;;;;7.47;1.60;;;;;;;;;;4970944;28;20240;-79
2023/11/25 13:14:22;;;;;;;3.33;1.43;;;;;;;;;;4973926;28;20214;-80
2023/11/25 13:16:47;;;;;;;5.17;1.10;;;;;;;;;;4967894;28;20238;-80
2023/11/25 13:19:13;;;;;;;4.17;1.40;;;;;;;;;;4946783;28;20248;-82
2023/11/25 13:21:41;;;;;;;6.13;1.17;;;;;;;;;;4940689;28;20244;-82
2023/11/25 13:24:07;;;;;;;2.37;1.17;;;;;;;;;;4966054;28;20218;-80
2023/11/25 13:26:32;;;;;;;2.50;1.30;;;;;;;;;;4971865;28;20225;-82
2023/11/25 13:29:02;;;;;;;4.67;1.17;;;;;;;;;;4930691;28;20215;-81
2023/11/25 13:31:27;;;;;;;2.60;1.23;;;;;;;;;;4962740;28;20245;-82
2023/11/25 13:33:55;;;;;;;3.47;1.43;;;;;;;;;;4948442;28;20239;-81
2023/11/25 13:36:21;;;;;;;3.03;1.23;;;;;;;;;;4962954;28;20653;-81
2023/11/25 13:38:49;;;;;;;1.50;1.10;;;;;;;;;;4967113;28;20229;-81
2023/11/25 13:41:15;;;;;;;3.13;1.23;;;;;;;;;;4926916;28;20541;-83
2023/11/25 13:43:45;;;;;;;1.53;1.10;;;;;;;;;;4932307;28;20234;-81
2023/11/25 13:46:10;;;;;;;2.70;1.33;;;;;;;;;;4973483;28;20230;-80
2023/11/25 13:48:36;;;;;;;3.80;1.30;;;;;;;;;;4956090;28;20221;-80
2023/11/25 13:51:03;;;;;;;3.83;1.40;;;;;;;;;;4940664;28;20217;-81
2023/11/25 13:53:29;;;;;;;3.17;1.10;;;;;;;;;;4952846;28;20235;-81
2023/11/25 13:55:54;;;;;;;3.93;1.37;;;;;;;;;;4973422;28;20230;-79
2023/11/25 13:58:22;;;;;;;2.80;1.37;;;;;;;;;;4950310;28;20211;-82
2023/11/25 14:00:48;;;;;;;5.00;1.27;;;;;;;;;;4948048;28;20262;-81
2023/11/25 14:03:13;;;;;;;1.37;0.97;;;;;;;;;;4931533;28;20219;-80
2023/11/25 14:05:42;;;;;;;1.90;1.00;;;;;;;;;;4950522;28;20695;-82
2023/11/25 14:08:08;;;;;;;1.50;1.00;;;;;;;;;;4923674;28;20231;-82
2023/11/25 14:10:37;;;;;;;4.47;1.30;;;;;;;;;;4947587;28;20471;-82
2023/11/25 14:13:07;;;;;;;2.87;1.40;;;;;;;;;;4938583;28;20625;-82
2023/11/25 14:15:33;;;;;;;1.93;1.20;;;;;;;;;;4944140;28;20250;-84
2023/11/25 14:17:59;;;;;;;3.90;1.30;;;;;;;;;;4963714;28;20215;-81
2023/11/25 14:20:28;;;;;;;2.83;1.30;;;;;;;;;;4949881;28;20222;-80
2023/11/25 14:22:53;;;;;;;6.10;2.10;;;;;;;;;;4945093;28;20227;-80
2023/11/25 14:25:19;;;;;;;1.97;1.40;;;;;;;;;;4946467;28;20610;-80
2023/11/25 14:27:48;;;;;;;6.43;1.40;;;;;;;;;;4954396;28;20230;-80
2023/11/25 14:30:18;;;;;;;3.40;1.50;;;;;;;;;;4950040;28;20246;-81
2023/11/25 14:32:50;;;;;;;1.53;1.17;;;;;;;;;;4961633;28;20237;-82
2023/11/25 14:35:16;;;;;;;1.23;1.10;;;;;;;;;;4946933;28;20226;-81
2023/11/25 14:37:44;;;;;;;4.03;1.80;;;;;;;;;;4932908;28;20635;-81
2023/11/25 14:40:10;;;;;;;5.33;1.30;;;;;;;;;;4932708;28;20278;-81
2023/11/25 14:42:38;;;;;;;3.90;1.50;;;;;;;;;;4948279;28;20226;-81
2023/11/25 14:45:07;;;;;;;5.10;1.90;;;;;;;;;;4941621;28;20719;-82
2023/11/25 14:47:36;;;;;;;2.10;1.40;;;;;;;;;;4969671;28;20215;-81
2023/11/25 14:50:04;;;;;;;4.90;1.73;;;;;;;;;;4934393;28;20285;-82
2023/11/25 14:52:33;;;;;;;2.33;1.33;;;;;;;;;;4945116;28;20566;-81
2023/11/25 14:54:58;;;;;;;3.93;1.70;;;;;;;;;;4934718;28;20286;-81
2023/11/25 14:57:27;;;;;;;2.70;1.77;;;;;;;;;;4945652;28;20223;-81
2023/11/25 14:59:55;;;;;;;2.77;1.20;;;;;;;;;;4945286;28;20577;-81
2023/11/25 15:02:23;;;;;;;4.97;1.93;;;;;;;;;;4946409;28;20309;-83